Star Flyer — 9HA2512 — position and weather

sailwx.info

Track history (hours):
 
Tides and Currents Weather Stations Pressure Air Temp Water Temp Dewpoint Dewpoint Depression Visibility Wind Speed Wind Dir Waves Ship Positions

Star Flyer

Last reported at 2018-Apr-22 21:38 UTC. Time now 2018-Apr-23 00:19 UTC.
Position N 38°42' W 009°10'.

Length 112 m; draft 5.9 m.

Type: Ship. MMSI: 248785000.

Date/timePositionNaut miles runAvg speedWind from/ knotsBaromVisibWave heightAir tempDewpointWater temp
2018-Apr-22 21:38N 38°42' W 009°10'0 0.0
2018-Apr-22 15:32N 38°42' W 009°10'0 0.0
2018-Apr-22 15:14N 38°42' W 009°10'0 0.0
2018-Apr-22 14:54N 38°42' W 009°10'0 0.0
2018-Apr-22 03:56N 38°42' W 009°10'0 0.0
2018-Apr-21 21:51N 38°42' W 009°10'0 0.0
2018-Apr-21 19:45N 38°42' W 009°10'0 0.0
2018-Apr-20 17:54N 38°42' W 009°10'0 0.2
2018-Apr-20 16:07N 38°42' W 009°09'0 0.9
2018-Apr-20 15:55N 38°42' W 009°09'1 2.4
2018-Apr-20 15:29N 38°43' W 009°08'0 0.0
2018-Apr-20 14:59N 38°43' W 009°08'0 0.0
2018-Apr-20 14:29N 38°43' W 009°08'0 0.0
2018-Apr-20 13:59N 38°43' W 009°08'0 0.0
2018-Apr-20 13:29N 38°43' W 009°08'0 0.0
2018-Apr-20 12:56N 38°43' W 009°08'0 0.0
2018-Apr-20 12:29N 38°43' W 009°08'0 0.0
2018-Apr-20 11:59N 38°43' W 009°08'0 0.0
2018-Apr-20 11:29N 38°43' W 009°08'0 0.0
2018-Apr-20 10:59N 38°43' W 009°08'0 0.0
2018-Apr-20 10:29N 38°43' W 009°08'0 0.0
2018-Apr-20 09:56N 38°43' W 009°08'0 0.0
2018-Apr-20 09:29N 38°43' W 009°08'0 0.0
2018-Apr-20 08:59N 38°43' W 009°08'0 0.0
2018-Apr-20 08:29N 38°43' W 009°08'0 0.0
2018-Apr-20 07:56N 38°43' W 009°08'0 0.0
2018-Apr-20 07:29N 38°43' W 009°08'0 0.0
2018-Apr-20 06:59N 38°43' W 009°08'0 0.0
2018-Apr-20 06:26N 38°43' W 009°08'0 0.0
2018-Apr-20 06:00N 38°43' W 009°08'0 0.0
2018-Apr-20 05:30N 38°43' W 009°08'0 0.0
2018-Apr-20 05:00N 38°43' W 009°08'0 0.0
2018-Apr-20 04:30N 38°43' W 009°08'0 0.0
2018-Apr-20 03:57N 38°43' W 009°08'0 0.0
2018-Apr-20 03:30N 38°43' W 009°08'0 0.0
2018-Apr-20 03:00N 38°43' W 009°08'0 0.0
2018-Apr-20 02:24N 38°43' W 009°08'0 0.0
2018-Apr-20 02:00N 38°43' W 009°08'0 0.0
2018-Apr-20 01:30N 38°43' W 009°08'0 0.0
2018-Apr-20 01:00N 38°43' W 009°08'0 0.0
2018-Apr-20 00:30N 38°43' W 009°08'0 0.0
2018-Apr-20 00:00N 38°43' W 009°08'0 0.0
2018-Apr-19 23:30N 38°43' W 009°08'0 0.0
2018-Apr-19 22:58N 38°43' W 009°08'0 0.0
2018-Apr-19 22:28N 38°43' W 009°08'0 0.0
2018-Apr-19 21:58N 38°43' W 009°08'0 0.0
2018-Apr-19 21:28N 38°43' W 009°08'0 0.0
2018-Apr-19 20:58N 38°43' W 009°08'0 0.0
2018-Apr-19 20:25N 38°43' W 009°08'0 0.0
2018-Apr-19 19:58N 38°43' W 009°08'0 0.0
2018-Apr-19 19:28N 38°43' W 009°08'0 0.0
2018-Apr-19 18:58N 38°43' W 009°08'0 0.0
2018-Apr-19 18:28N 38°43' W 009°08'0 0.0
2018-Apr-19 17:58N 38°43' W 009°08'0 0.0
2018-Apr-19 17:30N 38°43' W 009°08'2 1.9
2018-Apr-19 16:43N 38°42' W 009°10'0 0.0
2018-Apr-19 16:24N 38°42' W 009°10'0 0.0
2018-Apr-19 08:33N 38°42' W 009°10'0 0.0
2018-Apr-19 03:03N 38°42' W 009°10'0 0.0
2018-Apr-18 20:27N 38°42' W 009°10'0 0.0
2018-Apr-18 19:53N 38°42' W 009°10'0 0.0
2018-Apr-18 10:41N 38°42' W 009°10'0 0.0
2018-Apr-18 09:15N 38°42' W 009°10'0 0.0
2018-Apr-18 08:57N 38°42' W 009°10'0 0.0
2018-Apr-18 07:11N 38°42' W 009°10'0 0.0
2018-Apr-18 06:51N 38°42' W 009°10'0 0.0
2018-Apr-18 06:27N 38°42' W 009°10'0 0.0
2018-Apr-18 06:00N 38°42' W 009°10'0 0.0
2018-Apr-18 03:42N 38°42' W 009°10'0 1.5
2018-Apr-18 03:29N 38°42' W 009°09'3 7.1
2018-Apr-18 03:00N 38°41' W 009°13'4 8.2
2018-Apr-18 02:29N 38°40' W 009°19'5 9.6
2018-Apr-18 02:00N 38°37' W 009°23'4 8.6
2018-Apr-18 01:30N 38°35' W 009°27'4 8.7
2018-Apr-18 01:00N 38°33' W 009°32'4 8.9
2018-Apr-18 00:30N 38°31' W 009°38'4 9.0
2018-Apr-18 00:00N 38°29' W 009°43'4 8.3
2018-Apr-17 23:30N 38°28' W 009°48'4 7.9
2018-Apr-17 23:00N 38°28' W 009°53'4 8.5
2018-Apr-17 22:30N 38°28' W 009°59'4 8.5
2018-Apr-17 22:00N 38°28' W 010°04'4 8.4
2018-Apr-17 21:30N 38°27' W 010°09'4 8.4
2018-Apr-17 21:00N 38°26' W 010°14'4 8.3
2018-Apr-17 20:30N 38°25' W 010°20'4 8.0
2018-Apr-17 20:00N 38°24' W 010°24'4 8.1
2018-Apr-17 19:30N 38°23' W 010°29'4 8.3
2018-Apr-17 19:00N 38°22' W 010°35'4 8.1
2018-Apr-17 18:30N 38°21' W 010°40'4 8.2
2018-Apr-17 17:57N 38°20' W 010°45'8 8.2
2018-Apr-17 16:59N 38°18' W 010°55'4 8.3
2018-Apr-17 16:29N 38°17' W 011°00'  
2018-Apr-14 09:57N 37°19' W 023°32'5 6.5
2018-Apr-14 09:09N 37°20' W 023°39'1 6.5
2018-Apr-14 09:00N 37°20' W 023°40'2 4.5
2018-Apr-14 08:30N 37°20' W 023°43'4 5.4
2018-Apr-14 07:40N 37°21' W 023°48'2 5.5
2018-Apr-14 07:18N 37°21' W 023°51'2 6.4
2018-Apr-14 07:00N 37°22' W 023°53'5 9.1
2018-Apr-14 06:30N 37°23' W 023°58'4 9.2
2018-Apr-14 06:00N 37°25' W 024°04'4 9.0
2018-Apr-14 05:30N 37°27' W 024°09'5 9.1
2018-Apr-14 05:00N 37°28' W 024°14'5 9.3
2018-Apr-14 04:30N 37°30' W 024°20'5 9.4
2018-Apr-14 04:00N 37°31' W 024°26'5 9.2
2018-Apr-14 03:30N 37°31' W 024°31'5 9.0
2018-Apr-14 03:00N 37°32' W 024°37'4 8.8
2018-Apr-14 02:30N 37°33' W 024°42'4 8.9
2018-Apr-14 02:00N 37°34' W 024°48'4 9.0
2018-Apr-14 01:30N 37°35' W 024°54'4 8.7
2018-Apr-14 01:00N 37°35' W 024°59'4 8.4
2018-Apr-14 00:31N 37°36' W 025°04'4 8.8
2018-Apr-14 00:00N 37°37' W 025°10'5 9.1
2018-Apr-13 23:30N 37°37' W 025°15'4 8.8
2018-Apr-13 23:00N 37°38' W 025°21'4 8.2
2018-Apr-13 22:30N 37°39' W 025°26'4 8.4
2018-Apr-13 22:00N 37°40' W 025°31'8 8.0
2018-Apr-13 21:00N 37°44' W 025°40'0 0.4
2018-Apr-13 20:28N 37°44' W 025°40'0 0.0
2018-Apr-13 19:58N 37°44' W 025°40'0 0.0
2018-Apr-13 19:28N 37°44' W 025°40'0 0.0
2018-Apr-13 18:58N 37°44' W 025°40'0 0.0
2018-Apr-13 18:28N 37°44' W 025°40'0 0.0
2018-Apr-13 17:58N 37°44' W 025°40'0 0.0
2018-Apr-13 17:28N 37°44' W 025°40'0 0.0
2018-Apr-13 16:58N 37°44' W 025°40'0 0.0
2018-Apr-13 16:28N 37°44' W 025°40'0 0.0
2018-Apr-13 15:58N 37°44' W 025°40'0 0.0
2018-Apr-13 15:28N 37°44' W 025°40'0 0.0
2018-Apr-13 14:58N 37°44' W 025°40'0 0.0
2018-Apr-13 14:28N 37°44' W 025°40'0 0.0
2018-Apr-13 13:58N 37°44' W 025°40'0 0.0
2018-Apr-13 13:28N 37°44' W 025°40'0 0.0
2018-Apr-13 12:58N 37°44' W 025°40'0 0.0
2018-Apr-13 12:28N 37°44' W 025°40'0 0.0
2018-Apr-13 11:58N 37°44' W 025°40'0 0.0
2018-Apr-13 11:28N 37°44' W 025°40'0 0.0
2018-Apr-13 10:58N 37°44' W 025°40'0 0.0
2018-Apr-13 10:28N 37°44' W 025°40'0 0.0
2018-Apr-13 09:58N 37°44' W 025°40'0 0.0
2018-Apr-13 09:28N 37°44' W 025°40'1 2.2
2018-Apr-13 09:00N 37°44' W 025°39'2 3.6
2018-Apr-13 08:30N 37°42' W 025°40'2 3.2
2018-Apr-13 08:00N 37°42' W 025°42'3 5.3
2018-Apr-13 07:30N 37°42' W 025°45'3 5.4
2018-Apr-13 07:00N 37°41' W 025°49'3 6.2
2018-Apr-13 06:30N 37°40' W 025°52'4 7.2
2018-Apr-13 06:00N 37°39' W 025°57'4 7.1
2018-Apr-13 05:30N 37°38' W 026°01'  
Track history (hours):
 
Tides and Currents Weather Stations Pressure Air Temp Water Temp Dewpoint Dewpoint Depression Visibility Wind Speed Wind Dir Waves Ship Positions

Star Flyer

Last reported at 2018-Apr-22 21:38 UTC. Time now 2018-Apr-23 00:19 UTC.
Position N 38°42' W 009°10'.

Length 112 m; draft 5.9 m.

Type: Ship. MMSI: 248785000.

Date/timePositionNaut miles runAvg speedWind from/ knotsBaromVisibWave heightAir tempDewpointWater temp
2018-Apr-22 21:38N 38°42' W 009°10'0 0.0
2018-Apr-22 15:32N 38°42' W 009°10'0 0.0
2018-Apr-22 15:14N 38°42' W 009°10'0 0.0
2018-Apr-22 14:54N 38°42' W 009°10'0 0.0
2018-Apr-22 03:56N 38°42' W 009°10'0 0.0
2018-Apr-21 21:51N 38°42' W 009°10'0 0.0
2018-Apr-21 19:45N 38°42' W 009°10'0 0.0
2018-Apr-20 17:54N 38°42' W 009°10'0 0.2
2018-Apr-20 16:07N 38°42' W 009°09'0 0.9
2018-Apr-20 15:55N 38°42' W 009°09'1 2.4
2018-Apr-20 15:29N 38°43' W 009°08'0 0.0
2018-Apr-20 14:59N 38°43' W 009°08'0 0.0
2018-Apr-20 14:29N 38°43' W 009°08'0 0.0
2018-Apr-20 13:59N 38°43' W 009°08'0 0.0
2018-Apr-20 13:29N 38°43' W 009°08'0 0.0
2018-Apr-20 12:56N 38°43' W 009°08'0 0.0
2018-Apr-20 12:29N 38°43' W 009°08'0 0.0
2018-Apr-20 11:59N 38°43' W 009°08'0 0.0
2018-Apr-20 11:29N 38°43' W 009°08'0 0.0
2018-Apr-20 10:59N 38°43' W 009°08'0 0.0
2018-Apr-20 10:29N 38°43' W 009°08'0 0.0
2018-Apr-20 09:56N 38°43' W 009°08'0 0.0
2018-Apr-20 09:29N 38°43' W 009°08'0 0.0
2018-Apr-20 08:59N 38°43' W 009°08'0 0.0
2018-Apr-20 08:29N 38°43' W 009°08'0 0.0
2018-Apr-20 07:56N 38°43' W 009°08'0 0.0
2018-Apr-20 07:29N 38°43' W 009°08'0 0.0
2018-Apr-20 06:59N 38°43' W 009°08'0 0.0
2018-Apr-20 06:26N 38°43' W 009°08'0 0.0
2018-Apr-20 06:00N 38°43' W 009°08'0 0.0
2018-Apr-20 05:30N 38°43' W 009°08'0 0.0
2018-Apr-20 05:00N 38°43' W 009°08'0 0.0
2018-Apr-20 04:30N 38°43' W 009°08'0 0.0
2018-Apr-20 03:57N 38°43' W 009°08'0 0.0
2018-Apr-20 03:30N 38°43' W 009°08'0 0.0
2018-Apr-20 03:00N 38°43' W 009°08'0 0.0
2018-Apr-20 02:24N 38°43' W 009°08'0 0.0
2018-Apr-20 02:00N 38°43' W 009°08'0 0.0
2018-Apr-20 01:30N 38°43' W 009°08'0 0.0
2018-Apr-20 01:00N 38°43' W 009°08'0 0.0
2018-Apr-20 00:30N 38°43' W 009°08'0 0.0
2018-Apr-20 00:00N 38°43' W 009°08'0 0.0
2018-Apr-19 23:30N 38°43' W 009°08'0 0.0
2018-Apr-19 22:58N 38°43' W 009°08'0 0.0
2018-Apr-19 22:28N 38°43' W 009°08'0 0.0
2018-Apr-19 21:58N 38°43' W 009°08'0 0.0
2018-Apr-19 21:28N 38°43' W 009°08'0 0.0
2018-Apr-19 20:58N 38°43' W 009°08'0 0.0
2018-Apr-19 20:25N 38°43' W 009°08'0 0.0
2018-Apr-19 19:58N 38°43' W 009°08'0 0.0
2018-Apr-19 19:28N 38°43' W 009°08'0 0.0
2018-Apr-19 18:58N 38°43' W 009°08'0 0.0
2018-Apr-19 18:28N 38°43' W 009°08'0 0.0
2018-Apr-19 17:58N 38°43' W 009°08'0 0.0
2018-Apr-19 17:30N 38°43' W 009°08'2 1.9
2018-Apr-19 16:43N 38°42' W 009°10'0 0.0
2018-Apr-19 16:24N 38°42' W 009°10'0 0.0
2018-Apr-19 08:33N 38°42' W 009°10'0 0.0
2018-Apr-19 03:03N 38°42' W 009°10'0 0.0
2018-Apr-18 20:27N 38°42' W 009°10'0 0.0
2018-Apr-18 19:53N 38°42' W 009°10'0 0.0
2018-Apr-18 10:41N 38°42' W 009°10'0 0.0
2018-Apr-18 09:15N 38°42' W 009°10'0 0.0
2018-Apr-18 08:57N 38°42' W 009°10'0 0.0
2018-Apr-18 07:11N 38°42' W 009°10'0 0.0
2018-Apr-18 06:51N 38°42' W 009°10'0 0.0
2018-Apr-18 06:27N 38°42' W 009°10'0 0.0
2018-Apr-18 06:00N 38°42' W 009°10'0 0.0
2018-Apr-18 03:42N 38°42' W 009°10'0 1.5
2018-Apr-18 03:29N 38°42' W 009°09'3 7.1
2018-Apr-18 03:00N 38°41' W 009°13'4 8.2
2018-Apr-18 02:29N 38°40' W 009°19'5 9.6
2018-Apr-18 02:00N 38°37' W 009°23'4 8.6
2018-Apr-18 01:30N 38°35' W 009°27'4 8.7
2018-Apr-18 01:00N 38°33' W 009°32'4 8.9
2018-Apr-18 00:30N 38°31' W 009°38'4 9.0
2018-Apr-18 00:00N 38°29' W 009°43'4 8.3
2018-Apr-17 23:30N 38°28' W 009°48'4 7.9
2018-Apr-17 23:00N 38°28' W 009°53'4 8.5
2018-Apr-17 22:30N 38°28' W 009°59'4 8.5
2018-Apr-17 22:00N 38°28' W 010°04'4 8.4
2018-Apr-17 21:30N 38°27' W 010°09'4 8.4
2018-Apr-17 21:00N 38°26' W 010°14'4 8.3
2018-Apr-17 20:30N 38°25' W 010°20'4 8.0
2018-Apr-17 20:00N 38°24' W 010°24'4 8.1
2018-Apr-17 19:30N 38°23' W 010°29'4 8.3
2018-Apr-17 19:00N 38°22' W 010°35'4 8.1
2018-Apr-17 18:30N 38°21' W 010°40'4 8.2
2018-Apr-17 17:57N 38°20' W 010°45'8 8.2
2018-Apr-17 16:59N 38°18' W 010°55'4 8.3
2018-Apr-17 16:29N 38°17' W 011°00'  
2018-Apr-14 09:57N 37°19' W 023°32'5 6.5
2018-Apr-14 09:09N 37°20' W 023°39'1 6.5
2018-Apr-14 09:00N 37°20' W 023°40'2 4.5
2018-Apr-14 08:30N 37°20' W 023°43'4 5.4
2018-Apr-14 07:40N 37°21' W 023°48'2 5.5
2018-Apr-14 07:18N 37°21' W 023°51'2 6.4
2018-Apr-14 07:00N 37°22' W 023°53'5 9.1
2018-Apr-14 06:30N 37°23' W 023°58'4 9.2
2018-Apr-14 06:00N 37°25' W 024°04'4 9.0
2018-Apr-14 05:30N 37°27' W 024°09'5 9.1
2018-Apr-14 05:00N 37°28' W 024°14'5 9.3
2018-Apr-14 04:30N 37°30' W 024°20'5 9.4
2018-Apr-14 04:00N 37°31' W 024°26'5 9.2
2018-Apr-14 03:30N 37°31' W 024°31'5 9.0
2018-Apr-14 03:00N 37°32' W 024°37'4 8.8
2018-Apr-14 02:30N 37°33' W 024°42'4 8.9
2018-Apr-14 02:00N 37°34' W 024°48'4 9.0
2018-Apr-14 01:30N 37°35' W 024°54'4 8.7
2018-Apr-14 01:00N 37°35' W 024°59'4 8.4
2018-Apr-14 00:31N 37°36' W 025°04'4 8.8
2018-Apr-14 00:00N 37°37' W 025°10'5 9.1
2018-Apr-13 23:30N 37°37' W 025°15'4 8.8
2018-Apr-13 23:00N 37°38' W 025°21'4 8.2
2018-Apr-13 22:30N 37°39' W 025°26'4 8.4
2018-Apr-13 22:00N 37°40' W 025°31'8 8.0
2018-Apr-13 21:00N 37°44' W 025°40'0 0.4
2018-Apr-13 20:28N 37°44' W 025°40'0 0.0
2018-Apr-13 19:58N 37°44' W 025°40'0 0.0
2018-Apr-13 19:28N 37°44' W 025°40'0 0.0
2018-Apr-13 18:58N 37°44' W 025°40'0 0.0
2018-Apr-13 18:28N 37°44' W 025°40'0 0.0
2018-Apr-13 17:58N 37°44' W 025°40'0 0.0
2018-Apr-13 17:28N 37°44' W 025°40'0 0.0
2018-Apr-13 16:58N 37°44' W 025°40'0 0.0
2018-Apr-13 16:28N 37°44' W 025°40'0 0.0
2018-Apr-13 15:58N 37°44' W 025°40'0 0.0
2018-Apr-13 15:28N 37°44' W 025°40'0 0.0
2018-Apr-13 14:58N 37°44' W 025°40'0 0.0
2018-Apr-13 14:28N 37°44' W 025°40'0 0.0
2018-Apr-13 13:58N 37°44' W 025°40'0 0.0
2018-Apr-13 13:28N 37°44' W 025°40'0 0.0
2018-Apr-13 12:58N 37°44' W 025°40'0 0.0
2018-Apr-13 12:28N 37°44' W 025°40'0 0.0
2018-Apr-13 11:58N 37°44' W 025°40'0 0.0
2018-Apr-13 11:28N 37°44' W 025°40'0 0.0
2018-Apr-13 10:58N 37°44' W 025°40'0 0.0
2018-Apr-13 10:28N 37°44' W 025°40'0 0.0
2018-Apr-13 09:58N 37°44' W 025°40'0 0.0
2018-Apr-13 09:28N 37°44' W 025°40'1 2.2
2018-Apr-13 09:00N 37°44' W 025°39'2 3.6
2018-Apr-13 08:30N 37°42' W 025°40'2 3.2
2018-Apr-13 08:00N 37°42' W 025°42'3 5.3
2018-Apr-13 07:30N 37°42' W 025°45'3 5.4
2018-Apr-13 07:00N 37°41' W 025°49'3 6.2
2018-Apr-13 06:30N 37°40' W 025°52'4 7.2
2018-Apr-13 06:00N 37°39' W 025°57'4 7.1
2018-Apr-13 05:30N 37°38' W 026°01'  

Dump ship's entire track history